Reportages photos

Inscriptions en ligne

Connexion

10KM

.

10 KM NESLES du 22/03/15 (Reelle 10)
Rang Dossard Nom Prénom Temps Cat Rang Cat Ecart Ecart Cat Club Vitesse Km/h Temps au Km
1 89 MEATS ANTOINE 00:33:58 SEM 1 00:00:00 00:00:00 NON LICENCIE 17,664 03:24
2 346 PICHONNIER GUILLAUME 00:34:06 SEM 2 00:00:08 00:00:08 17,595 03:25
3 194 THIBAULT NICOLAS 00:34:34 SEM 3 00:00:36 00:00:36 TOUQUET OPALE ATHLETISME 17,358 03:27
4 343 GHYS ALEXANDRE 00:34:40 ESM 1 00:00:42 00:00:00 NON LICENCIE 17,308 03:28
5 6 HENQUEZ THIERRY 00:34:42 V1M 1 00:00:44 00:00:00 AC AUDOMAROIS 17,291 03:28
6 370 DUFRESNE FABIEN 00:36:15 SEM 4 00:02:17 00:02:17 ATHLETISME CLUB OUTREAU 16,552 03:38
7 200 MORIN AYMERIC 00:36:25 SEM 5 00:02:27 00:02:27 WIMEREUX RUNNING CLUB 16,476 03:39
8 191 WACOGNE MICHAEL 00:36:34 SEM 6 00:02:36 00:02:36 TOUQUET OPALE ATHLETISME 16,408 03:39
9 361 MILLE SEBASTIEN 00:36:36 SEM 7 00:02:38 00:02:38 TRIATHLON CLUB BOULONNAIS 16,393 03:40
10 236 BEAUMONT DENIS 00:36:38 V1M 2 00:02:40 00:01:56 ATHLETISME CLUB OUTREAU 16,379 03:40
11 308 JOSEPH JOEL 00:36:41 V2M 1 00:02:43 00:00:00 PATRIOTES CROSS DE GUINES 16,356 03:40
12 369 PRUVOT ROMAIN 00:36:45 SEM 8 00:02:47 00:02:47 TOUQUET OPALE ATHLETISME 16,327 03:41
13 225 LEVEL FABIEN 00:36:54 SEM 9 00:02:56 00:02:56 ATHLETIQUE CLUB CAPELLOIS 16,260 03:41
14 249 DELVALLEE ALEXANDRE 00:37:01 SEM 10 00:03:03 00:03:03 ATHLETISME CLUB OUTREAU 16,209 03:42
15 335 WILLER FRANCOIS 00:37:17 V1M 3 00:03:19 00:02:35 TOUQUET OPALE ATHLETISME 16,093 03:44
16 366 BARAK ALI 00:37:39 CAM 1 00:03:41 00:00:00 EMA 62 15,936 03:46
17 156 BRUNEL JEAN-FRANCOIS 00:37:41 V1M 4 00:03:43 00:02:59 SAINT MARTIN ATHLETISME 15,922 03:46
18 186 LOUVRIE DIDIER 00:37:44 V3M 1 00:03:46 00:00:00 TOUQUET OPALE ATHLETISME 15,901 03:46
19 302 BREQUEVILLE SAMUEL 00:37:53 V1M 5 00:03:55 00:03:11 TOUQUET TRAIL NATURE 15,838 03:47
20 197 HANQUEZ RODRIGUE 00:37:54 SEM 11 00:03:56 00:03:56 TOUQUET TRAIL NATURE 15,831 03:47
21 286 LEPRETRE CYRILLE 00:37:58 SEM 12 00:04:00 00:04:00 LE DRAPEAU 15,803 03:48
22 124 RAY SAMUEL 00:38:11 V1M 6 00:04:13 00:03:29 NON LICENCIE 15,714 03:49
23 282 DOCQUOIS FREDERIC 00:38:11 V1M 7 00:04:13 00:03:29 LE DRAPEAU 15,714 03:49
24 386 LE BEC MICHAEL 00:38:19 SEM 13 00:04:21 00:04:21 TEAM TRAIL 62 15,659 03:50
25 322 DUHAMEL PHILIPPE 00:38:21 V2M 2 00:04:23 00:01:40 NON LICENCIE 15,645 03:50
26 56 BLONDEEL DAVID 00:38:25 SEM 14 00:04:27 00:04:27 ETAPLES TRIATHLON 15,618 03:51
27 219 BRIEZ ARNAUD 00:38:32 V1M 8 00:04:34 00:03:50 ATHLETIQUE CLUB CAPELLOIS 15,571 03:51
28 267 QUANDALLE VINCENT 00:38:34 JUM 1 00:04:36 00:00:00 ATHLETISME CLUB OUTREAU 15,557 03:51
29 90 DUCROCQ LINDA 00:38:44 SEF 1 00:04:46 00:00:00 NON LICENCIE 15,491 03:52
30 239 BOURGAIN SEBASTIEN 00:38:50 V1M 9 00:04:52 00:04:08 ATHLETISME CLUB OUTREAU 15,451 03:53
31 170 DUCLOY KEVIN 00:38:53 SEM 15 00:04:55 00:04:55 SAINT MARTIN ATHLETISME 15,431 03:53
32 248 DELATTRE JOHANN 00:38:59 SEM 16 00:05:01 00:05:01 ATHLETISME CLUB OUTREAU 15,391 03:54
33 145 LIMOUSIN STEPHANE 00:39:00 V1M 10 00:05:02 00:04:18 PATRIOTES CROSS DE GUINES 15,385 03:54
34 152 MAZURIER ALAIN 00:39:05 V1M 11 00:05:07 00:04:23 PATRIOTES CROSS DE GUINES 15,352 03:55
35 368 GRESSIER JIMMY 00:39:08 JUM 2 00:05:10 00:00:34 EMA 62 15,332 03:55
36 341 LECARPENTIER FABRICE 00:39:09 V1M 12 00:05:11 00:04:27 NON LICENCIE 15,326 03:55
37 258 LEHON LUDOVIC 00:39:10 SEM 17 00:05:12 00:05:12 NON LICENCIE 15,319 03:55
38 86 KUPCZYK MARIAN 00:39:17 SEM 18 00:05:19 00:05:19 NON LICENCIE 15,274 03:56
39 140 DUCROCQ ARNAUD 00:39:22 V1M 13 00:05:24 00:04:40 PATRIOTES CROSS DE GUINES 15,241 03:56
40 345 REMBUR JULIEN 00:39:26 SEM 19 00:05:28 00:05:28 NON LICENCIE 15,216 03:57
41 139 DENIS GWENDOLINE 00:39:27 SEF 2 00:05:29 00:00:43 PATRIOTES DE GUINES 15,209 03:57
42 17 PAGERIE SEBASTIEN 00:39:29 V1M 14 00:05:31 00:04:47 ARTOIS ATHLETISME 15,196 03:57
43 277 LEBLOND ARNAUD 00:39:42 V1M 15 00:05:44 00:05:00 LE DRAPEAU 15,113 03:58
44 199 HOLLEBECQUE MARTIN 00:39:48 SEM 20 00:05:50 00:05:50 WIMEREUX RUNNING CLUB 15,075 03:59
45 96 BATTESTI DAVID 00:39:48 SEM 21 00:05:50 00:05:50 TEAM RAKLETTE 15,075 03:59
46 150 PIERRU RENALD 00:39:49 V1M 16 00:05:51 00:05:07 PATRIOTES DE GUINES 15,069 03:59
47 227 NOEL DAVID 00:39:51 V1M 17 00:05:53 00:05:09 ATHLETIQUE CLUB CAPELLOIS 15,056 03:59
48 241 BRILLARD SEBASTIEN 00:39:51 SEM 22 00:05:53 00:05:53 ATHLETISME CLUB OUTREAU 15,056 03:59
49 224 LEFEBVRE MAXENCE 00:39:52 CAM 2 00:05:54 00:02:13 ATHLETIQUE CLUB CAPELLOIS 15,050 03:59
50 275 CARDON FLORIAN 00:39:55 ESM 2 00:05:57 00:05:15 LE DRAPEAU 15,031 04:00
51 100 LEMAITRE LAURENT 00:40:15 V1M 18 00:06:17 00:05:33 NON LICENCIE 14,907 04:02
52 128 GUILBERT FABIEN 00:40:46 SEM 23 00:06:48 00:06:48 NON LICENCIE 14,718 04:05
53 396 TAVERNE DAMIEN 00:40:50 SEM 24 00:06:52 00:06:52 TOUQUET OPALE ATHLETISME 14,694 04:05
54 331 RICCI THIBAULT 00:40:52 SEM 25 00:06:54 00:06:54 NON LICENCIE 14,682 04:05
55 327 HODIQUE HERVE 00:40:56 V1M 19 00:06:58 00:06:14 TEAM TRAIL 62 14,658 04:06
56 226 LEVEL LINA 00:40:56 SEF 3 00:06:58 00:02:12 ATHLETIQUE CLUB CAPELLOIS 14,658 04:06
57 212 BARROIS CEDRIC 00:40:59 SEM 26 00:07:01 00:07:01 ATHLETIQUE CLUB CAPELLOIS 14,640 04:06
58 188 HALLENNE VALERY 00:41:00 V1M 20 00:07:02 00:06:18 TOUQUET OPALE ATHLETISME 14,634 04:06
59 57 MOUSSAY MATHIEU 00:41:07 SEM 27 00:07:09 00:07:09 Gravelines Triathlon 14,593 04:07
60 278 FLAHAUT DANIEL 00:41:11 V1M 21 00:07:13 00:06:29 LE DRAPEAU 14,569 04:07
61 325 RICHARD DANIEL 00:41:13 V3M 2 00:07:15 00:03:29 NON LICENCIE 14,557 04:07
62 355 BOUVOT CYRILLE 00:41:22 SEM 28 00:07:24 00:07:24 NON LICENCIE 14,504 04:08
63 399 DENEVILLE ROMAIN 00:41:22 SEM 29 00:07:24 00:07:24 NON LICENCIE 14,504 04:08
64 123 DUCROCQ YVES 00:41:22 V2M 3 00:07:24 00:04:41 NON LICENCIE 14,504 04:08
65 333 ANDRIEUX JOEL 00:41:22 V1M 22 00:07:24 00:06:40 NON LICENCIE 14,504 04:08
66 344 MENUGE LAURENT 00:41:25 V1M 23 00:07:27 00:06:43 TOUQUET TRAIL NATURE 14,487 04:09
67 32 ROSE DANIEL 00:41:27 V2M 4 00:07:29 00:04:46 COURIR DANS LE LUMBROIS 14,475 04:09
68 81 BALY SYLVAIN 00:41:30 SEM 30 00:07:32 00:07:32 NON LICENCIE 14,458 04:09
69 250 DESEILLE GAUTIER 00:41:33 JUM 3 00:07:35 00:02:59 ATHLETISME CLUB OUTREAU 14,440 04:09
70 37 GOBERT LUDOVIC 00:41:33 SEM 31 00:07:35 00:07:35 CS NESLES 14,440 04:09
71 36 GOBERT MAXIME 00:41:34 SEM 32 00:07:36 00:07:36 CS NESLES 14,435 04:09
72 259 LHERONDELLE CHRISTOPHER 00:41:36 SEM 33 00:07:38 00:07:38 ATHLETISME CLUB OUTREAU 14,423 04:10
73 47 LEVIEL THIBAULT 00:41:37 CAM 3 00:07:39 00:03:58 ELAN FRUGEOIS 14,417 04:10
74 10 FORESTIER ALAIN 00:41:40 V1M 24 00:07:42 00:06:58 AMICALE HOSPITALIERS BOULOGNE 14,400 04:10
75 28 FORESTIER FLORIAN 00:41:42 CAM 4 00:07:44 00:04:03 COLEMBERT 14,388 04:10
76 125 DEWEER NICOLAS 00:41:46 SEM 34 00:07:48 00:07:48 NON LICENCIE 14,366 04:11
77 18 SCHUPPE CLOTAIRE 00:41:50 V2M 5 00:07:52 00:05:09 A.S. MARCK 14,343 04:11
78 220 FARNWORTH GRAEME 00:41:52 V1M 25 00:07:54 00:07:10 ATHLETIQUE CLUB CAPELLOIS 14,331 04:11
79 20 SENET EMILIE 00:41:56 SEF 4 00:07:58 00:03:12 A.S. MARCK 14,308 04:12
80 1 DUFOUR ANTOINE 00:41:58 ESM 3 00:08:00 00:07:18 ATHLETISME CLUB OUTREAU 14,297 04:12
81 299 LENGAGNE KARL 00:42:00 V1M 26 00:08:02 00:07:18 STADE PORTELOIS 14,286 04:12
82 264 MERLIN LOIC 00:42:01 SEM 35 00:08:03 00:08:03 ATHLETISME CLUB OUTREAU 14,280 04:12
83 314 MIRMONT REMI 00:42:03 SEM 36 00:08:05 00:08:05 LE DRAPEAU 14,269 04:12
84 266 PAYEN JEREMIE 00:42:11 V1M 27 00:08:13 00:07:29 ATHLETISME CLUB OUTREAU 14,224 04:13
85 110 DIEVAL JACQUES 00:42:12 V1M 28 00:08:14 00:07:30 NON LICENCIE 14,218 04:13
86 300 DAGNEAUX FABIEN 00:42:24 V1M 29 00:08:26 00:07:42 STADE PORTELOIS 14,151 04:14
87 367 DINIELLE ARNAUD 00:42:25 SEM 37 00:08:27 00:08:27 EMA 62 14,145 04:15
88 147 ROUTIER MAUD 00:42:27 SEF 5 00:08:29 00:03:43 PATRIOTES CROSS DE GUINES 14,134 04:15
89 393 LAMOUR MAXIME 00:42:27 SEM 38 00:08:29 00:08:29 NON LICENCIE 14,134 04:15
90 324 CAPPE ALEXANDRE 00:42:30 ESM 4 00:08:32 00:07:50 NON LICENCIE 14,118 04:15
91 181 VERITE CEDRIC 00:42:34 SEM 39 00:08:36 00:08:36 SPORT PLUS 14,096 04:15
92 238 BESNIER JEROME 00:42:37 V1M 30 00:08:39 00:07:55 ATHLETISME CLUB OUTREAU 14,079 04:16
93 195 BRUMENT MARION 00:42:43 SEF 6 00:08:45 00:03:59 TOUQUET OPALE ATHLETISME 14,046 04:16
94 105 TISSERAND THIBAUT 00:42:49 ESM 5 00:08:51 00:08:09 NON LICENCIE 14,013 04:17
95 350 BREQUEVILLE ANTHONY 00:42:55 SEM 40 00:08:57 00:08:57 NON LICENCIE 13,981 04:17
96 45 LAURENT JOCELYN 00:42:57 V2M 6 00:08:59 00:06:16 CULTURE DANSE ETAPLES 13,970 04:18
97 255 LANGAGNE GAETAN 00:42:58 SEM 41 00:09:00 00:09:00 ATHLETISME CLUB OUTREAU 13,964 04:18
98 348 BECQUET DAVID 00:42:59 V1M 31 00:09:01 00:08:17 NON LICENCIE 13,959 04:18
99 192 PHILIS JACQUES 00:43:04 V3M 3 00:09:06 00:05:20 TOUQUET OPALE ATHLETISME 13,932 04:18
100 198 BEUTIN MAXIME 00:43:07 SEM 42 00:09:09 00:09:09 TRIATHLON CLUB MONTREUILLOIS 13,916 04:19
101 117 BEGUE YANNICK 00:43:10 V1M 32 00:09:12 00:08:28 NON LICENCIE 13,900 04:19
102 221 LANGLOIS FREDERIC 00:43:11 V1M 33 00:09:13 00:08:29 ATHLETIQUE CLUB CAPELLOIS 13,894 04:19
103 251 DOCQUOIS FLORIAN 00:43:12 JUM 4 00:09:14 00:04:38 ATHLETISME CLUB OUTREAU 13,889 04:19
104 365 LE SCIELLOUR BRUNO 00:43:14 V2M 7 00:09:16 00:06:33 LE DRAPEAU 13,878 04:19
105 79 DELATTAIGNANT ARNAUD 00:43:15 V1M 34 00:09:17 00:08:33 NON LICENCIE 13,873 04:20
106 317 JACQUEMOD MICHAEL 00:43:18 SEM 43 00:09:20 00:09:20 NON LICENCIE 13,857 04:20
107 172 BORDEZ FRANCK 00:43:19 V2M 8 00:09:21 00:06:38 SPORT PLUS 13,851 04:20
108 357 LEFRANC OLIVIER 00:43:19 V1M 35 00:09:21 00:08:37 SAINT MARTIN ATHLETISME 13,851 04:20
109 378 MALLIOPOULOS XAVIER 00:43:21 V2M 9 00:09:23 00:06:40 BERCK A C O 13,841 04:20
110 342 BATILLIOT DOMINIQUE 00:43:23 V2F 1 00:09:25 00:00:00 PATRIOTES DE GUINES 13,830 04:20
111 143 QUENEHEN HERVE 00:43:23 V1M 36 00:09:25 00:08:41 PATRIOTES CROSS DE GUINES 13,830 04:20
112 185 BAUDOUX GILLES 00:43:26 V1M 37 00:09:28 00:08:44 TOUQUET ATHLETIQUE CLUB 13,814 04:21
113 21 VANDENABEELE VIRGINIE 00:43:40 V1F 1 00:09:42 00:00:00 A.S. MARCK 13,740 04:22
114 118 CHAMPION BRUNO 00:43:42 V1M 38 00:09:44 00:09:00 NON LICENCIE 13,730 04:22
115 67 HADRI SEBASTIEN 00:43:43 SEM 44 00:09:45 00:09:45 FOULEES LOONOISES 13,725 04:22
116 256 LAVERDURE PASCAL 00:43:47 V2M 10 00:09:49 00:07:06 ATHLETISME CLUB OUTREAU 13,704 04:23
117 309 TARTART SYLVIE 00:43:56 V1F 2 00:09:58 00:00:16 PATRIOTES DE GUINES 13,657 04:24
118 76 BAHEUX JEAN MICHEL 00:43:59 V3M 4 00:10:01 00:06:15 NON LICENCIE 13,642 04:24
119 380 DUMONT LUDOVIC 00:44:10 V1M 39 00:10:12 00:09:28 WIMEREUX RUNNING CLUB 13,585 04:25
120 279 DOCQUOIS MICHEL 00:44:10 V1M 40 00:10:12 00:09:28 LE DRAPEAU 13,585 04:25
121 68 PIERRU JULIEN 00:44:13 SEM 45 00:10:15 00:10:15 MARQUISE ATHLETISME 13,570 04:25
122 112 HERLIN CLEMENT 00:44:18 SEM 46 00:10:20 00:10:20 NON LICENCIE 13,544 04:26
123 288 APHERVE REGIS 00:44:19 V1M 41 00:10:21 00:09:37 LE DRAPEAU 13,539 04:26
124 334 CROMBEZ SEBASTIEN 00:44:19 V1M 42 00:10:21 00:09:37 NON LICENCIE 13,539 04:26
125 243 CAULIER FREDDY 00:44:20 V2M 11 00:10:22 00:07:39 ATHLETISME CLUB OUTREAU 13,534 04:26
126 352 MOUSSAY LAURENT 00:44:23 V1M 43 00:10:25 00:09:41 NON LICENCIE 13,519 04:26
127 9 BRIMEUX LUDOVIC 00:44:27 SEM 47 00:10:29 00:10:29 AMICALE HOSPITALIERS BOULOGNE 13,498 04:27
128 149 PIERRU SIGRID 00:44:28 V1F 3 00:10:30 00:00:48 PATRIOTES CROSS DE GUINES 13,493 04:27
129 339 WATTEZ ERIC 00:44:34 V2M 12 00:10:36 00:07:53 ATHLETISME CLUB OUTREAU 13,463 04:27
130 113 LECAILLE CHRISTOPHE 00:44:37 SEM 48 00:10:39 00:10:39 NON LICENCIE 13,448 04:28
131 311 BAILLET DAVID 00:44:41 V1M 44 00:10:43 00:09:59 PATRIOTES DE GUINES 13,428 04:28
132 146 LEFEBVRE ARNAUD 00:44:46 SEM 49 00:10:48 00:10:48 PATRIOTES DE GUINES 13,403 04:29
133 372 ROBART RUDY 00:44:49 SEM 50 00:10:51 00:10:51 MARQUISE 13,388 04:29
134 171 BAILLET CHRISTIAN 00:44:52 V2M 13 00:10:54 00:08:11 SPORT PLUS 13,373 04:29
135 106 CANNIE FRANCK 00:44:54 V1M 45 00:10:56 00:10:12 NON LICENCIE 13,363 04:29
136 119 FAIT BENJAMIN 00:45:00 SEM 51 00:11:02 00:11:02 NON LICENCIE 13,333 04:30
137 130 COMPIEGNE FRANCK 00:45:00 V2M 14 00:11:02 00:08:19 NON LICENCIE 13,333 04:30
138 160 BRICHE ERIC 00:45:04 V2M 15 00:11:06 00:08:23 SAINT MARTIN ATHLETISME 13,314 04:30
139 364 INGOUF NATHALIE 00:45:04 V1F 4 00:11:06 00:01:24 LE DRAPEAU 13,314 04:30
140 353 BONNET POMME 00:45:07 SEF 7 00:11:09 00:06:23 PATRIOTES CROSS DE GUINES 13,299 04:31
141 222 LEBON RUDY 00:45:20 SEM 52 00:11:22 00:11:22 ATHLETIQUE CLUB CAPELLOIS 13,235 04:32
142 82 BALY PATRICK 00:45:26 V2M 16 00:11:28 00:08:45 NON LICENCIE 13,206 04:33
143 274 CARDON BENOIT 00:45:27 JUM 5 00:11:29 00:06:53 LE DRAPEAU 13,201 04:33
144 122 BLAIZEL THIERRY 00:45:30 SEM 53 00:11:32 00:11:32 NON LICENCIE 13,187 04:33
145 163 PERARD FREDDY 00:45:33 V2M 17 00:11:35 00:08:52 SAINT MARTIN ATHLETISME 13,172 04:33
146 296 NAJMI AICHA 00:45:35 V1F 5 00:11:37 00:01:55 LE DRAPEAU 13,163 04:34
147 151 DENEZ ANNE-SOPHIE 00:45:41 V1F 6 00:11:43 00:02:01 PATRIOTES CROSS DE GUINES 13,134 04:34
148 214 BETENCOURT THIERRY 00:45:45 V1M 46 00:11:47 00:11:03 ATHLETIQUE CLUB CAPELLOIS 13,115 04:34
149 229 NORMANT REMI 00:45:46 SEM 54 00:11:48 00:11:48 ATHLETIQUE CLUB CAPELLOIS 13,110 04:35
150 384 DELATTRE BRUNO 00:45:47 V3M 5 00:11:49 00:08:03 NON LICENCIE 13,105 04:35
151 26 DETHOOR DOMINIQUE 00:45:50 V2M 18 00:11:52 00:09:09 COLEMBERT 13,091 04:35
152 254 HOCQ BRUNO 00:45:52 V1M 47 00:11:54 00:11:10 ATHLETISME CLUB OUTREAU 13,081 04:35
153 58 BASSEMENT YOHANN 00:45:54 SEM 55 00:11:56 00:11:56 HUGGHY 13,072 04:35
154 290 MARIETTE YVETTE 00:45:54 V2F 2 00:11:56 00:02:31 LE DRAPEAU 13,072 04:35
155 330 DESTREZ CHRISTOPHE 00:45:55 V1M 48 00:11:57 00:11:13 NON LICENCIE 13,067 04:36
156 253 GRASSELLI SABRINA 00:45:55 SEF 8 00:11:57 00:07:11 ATHLETISME CLUB OUTREAU 13,067 04:36
157 272 HANON JEAN-PIERRE 00:45:57 V2M 19 00:11:59 00:09:16 LE DRAPEAU 13,058 04:36
158 237 BERNARD MICHAEL 00:46:01 V1M 49 00:12:03 00:11:19 ATHLETISME CLUB OUTREAU 13,039 04:36
159 252 FEUTRY PATRICK 00:46:07 V1M 50 00:12:09 00:11:25 ATHLETISME CLUB OUTREAU 13,010 04:37
160 59 BEGUE THIERRY 00:46:13 V1M 51 00:12:15 00:11:31 JOGGING CLUB LICQUOIS 12,982 04:37
161 193 KAMINSKI OLIVIA 00:46:15 SEF 9 00:12:17 00:07:31 TOUQUET OPALE ATHLETISME 12,973 04:37
162 233 SAUVAGE LAURENT 00:46:22 V1M 52 00:12:24 00:11:40 ATHLETIQUE CLUB CAPELLOIS 12,940 04:38
163 319 BARBAUT ISABELLE 00:46:24 V2F 3 00:12:26 00:03:01 A.S. MARCK 12,931 04:38
164 4 HUBARD STEPHANE 00:46:30 V1M 53 00:12:32 00:11:48 12,903 04:39
165 142 JOLY DAVID 00:46:32 V1M 54 00:12:34 00:11:50 PATRIOTES CROSS DE GUINES 12,894 04:39
166 323 LAMPE NICOLAS 00:46:33 SEM 56 00:12:35 00:12:35 NON LICENCIE 12,889 04:39
167 246 CRETON FABRICE 00:46:36 V1M 55 00:12:38 00:11:54 ATHLETISME CLUB OUTREAU 12,876 04:40
168 12 FLEURY CEDRIC 00:46:39 V1M 56 00:12:41 00:11:57 AMICALE HOSPITALIERS BOULOGNE 12,862 04:40
169 338 BAILLET GAUTHIER 00:46:49 ESM 6 00:12:51 00:12:09 ETAPLES TRIATHLON 12,816 04:41
170 285 PAQUES ERIC 00:46:50 V2M 20 00:12:52 00:10:09 LE DRAPEAU 12,811 04:41
171 287 LEDOUX THIERRY 00:46:51 V1M 57 00:12:53 00:12:09 LE DRAPEAU 12,807 04:41
172 294 DAMIENS PHILIPPE 00:47:12 V1M 58 00:13:14 00:12:30 LE DRAPEAU 12,712 04:43
173 362 LEFEBURE JEROME 00:47:13 SEM 57 00:13:15 00:13:15 NON LICENCIE 12,707 04:43
174 85 LEFEVRE ARNAUD 00:47:15 V1M 59 00:13:17 00:12:33 PATRIOTES DE GUINES 12,698 04:44
175 387 CALON MAXIME 00:47:18 SEM 58 00:13:20 00:13:20 NON LICENCIE 12,685 04:44
176 312 MAHY THIERRY 00:47:18 SEM 59 00:13:20 00:13:20 NON LICENCIE 12,685 04:44
177 174 DECOTTE GERARD 00:47:19 V2M 21 00:13:21 00:10:38 SPORT PLUS 12,681 04:44
178 280 LAMARRE SABRINA 00:47:20 SEF 10 00:13:22 00:08:36 LE DRAPEAU 12,676 04:44
179 260 LIBERT ERIC 00:47:20 V2M 22 00:13:22 00:10:39 ATHLETISME CLUB OUTREAU 12,676 04:44
180 92 ROBA VALENTIN 00:47:20 CAM 5 00:13:22 00:09:41 NON LICENCIE 12,676 04:44
181 31 ROUSSEL STEPHANE 00:47:21 V2M 23 00:13:23 00:10:40 COLEMBERT 12,672 04:44
182 120 FAIT MAXIME 00:47:24 SEM 60 00:13:26 00:13:26 NON LICENCIE 12,658 04:44
183 244 COPPIN MARGOT 00:47:36 CAF 1 00:13:38 00:00:00 ATHLETISME CLUB OUTREAU 12,605 04:46
184 205 TILLIER LUDOVIC 00:47:36 SEM 61 00:13:38 00:13:38 WIMEREUX RUNNING CLUB 12,605 04:46
185 245 COPPIN NICOLAS 00:47:37 V1M 60 00:13:39 00:12:55 ATHLETISME CLUB OUTREAU 12,601 04:46
186 97 BUE CHRISTOPHE 00:47:37 SEM 62 00:13:39 00:13:39 12,601 04:46
187 3 MOREL WILLY 00:47:37 V1M 61 00:13:39 00:12:55 ATHLETISME CLUB OUTREAU 12,601 04:46
188 203 SPILMONT HELENE 00:47:39 SEF 11 00:13:41 00:08:55 WIMEREUX RUNNING CLUB 12,592 04:46
189 61 MAGNIER DAVID 00:47:40 SEM 63 00:13:42 00:13:42 CALOTTERIE 12,587 04:46
190 33 ROBART GUILLAUME 00:47:45 SEM 64 00:13:47 00:13:47 CS NESLES 12,565 04:46
191 218 BREQUEVILLE LIONEL 00:47:46 V1M 62 00:13:48 00:13:04 ATHLETIQUE CLUB CAPELLOIS 12,561 04:47
192 73 COLLIER GUILLAUME 00:47:47 SEM 65 00:13:49 00:13:49 NON LICENCIE 12,557 04:47
193 289 MASZOTA DARIA 00:47:47 ESF 1 00:13:49 00:00:00 LE DRAPEAU 12,557 04:47
194 135 RAMBURE JEAN-FRANCOIS 00:47:49 V2M 24 00:13:51 00:11:08 NON LICENCIE 12,548 04:47
195 144 BECQUET KARINE 00:47:50 V1F 7 00:13:52 00:04:10 PATRIOTES CROSS DE GUINES 12,544 04:47
196 75 WILLAERT JULIEN 00:47:51 SEM 66 00:13:53 00:13:53 NON LICENCIE 12,539 04:47
197 232 REGNIER CHRISTINE 00:47:54 V1F 8 00:13:56 00:04:14 ATHLETIQUE CLUB CAPELLOIS 12,526 04:47
198 109 SAILLY ALAIN 00:47:56 V2M 25 00:13:58 00:11:15 NON LICENCIE 12,517 04:48
199 375 SALON PATRICK 00:47:58 V2M 26 00:14:00 00:11:17 CALOTTERIE 12,509 04:48
200 209 FONTAINE XAVIER 00:47:59 V2M 27 00:14:01 00:11:18 WIMEREUX RUNNING CLUB 12,504 04:48
201 397 LEGENDRE DAVID 00:48:09 SEM 67 00:14:11 00:14:11 NON LICENCIE 12,461 04:49
202 381 WALLON DAVID 00:48:12 V1M 63 00:14:14 00:13:30 NON LICENCIE 12,448 04:49
203 2 LELAN CEDRIC 00:48:13 V1M 64 00:14:15 00:13:31 ATHLETISME CLUB OUTREAU 12,444 04:49
204 340 MARGOLLE REGINALD 00:48:15 SEM 68 00:14:17 00:14:17 NON LICENCIE 12,435 04:50
205 178 HIARD ANDRE 00:48:22 V2M 28 00:14:24 00:11:41 SPORT PLUS 12,405 04:50
206 104 CONDETTE JEAN LUC 00:48:42 V3M 6 00:14:44 00:10:58 NON LICENCIE 12,320 04:52
207 374 BAHEUX ERIC 00:48:43 V1M 65 00:14:45 00:14:01 NON LICENCIE 12,316 04:52
208 129 BIGOT MARIE-CHRISTINE 00:48:57 V2F 4 00:14:59 00:05:34 NON LICENCIE 12,257 04:54
209 388 MACQUET BRUNO 00:48:58 V2M 29 00:15:00 00:12:17 OPALE TRAIL NATURE 12,253 04:54
210 389 BOURGAIN MICKAEL 00:48:59 SEM 69 00:15:01 00:15:01 OPALE TRAIL NATURE 12,249 04:54
211 40 FOUCAULT PASCAL 00:49:04 V2M 30 00:15:06 00:12:23 CULTURE DANSE ETAPLES 12,228 04:54
212 98 GROSJEAN CHRISTOPHE 00:49:04 SEM 70 00:15:06 00:15:06 NON LICENCIE 12,228 04:54
213 356 BAILLIEU ROSELINE 00:49:06 SEF 12 00:15:08 00:10:22 NON LICENCIE 12,220 04:55
214 196 BEAUVOIS CORALIE 00:49:08 SEF 13 00:15:10 00:10:24 TOUQUET TRAIL NATURE 12,212 04:55
215 22 DEBRUCKER PHILIPPE 00:49:13 V2M 31 00:15:15 00:12:32 BEBERS TEAM 12,191 04:55
216 173 BRIDOUX CHRISTINE 00:49:14 V1F 9 00:15:16 00:05:34 SPORT PLUS 12,187 04:55
217 141 DENEZ CHRISTELLE 00:49:20 V1F 10 00:15:22 00:05:40 PATRIOTES CROSS DE GUINES 12,162 04:56
218 155 MALFOY ROMAIN 00:49:24 SEM 71 00:15:26 00:15:26 SAINT MARTIN ATHLETISME 12,146 04:56
219 46 RAY ISABELLE 00:49:25 V1F 11 00:15:27 00:05:45 CULTURE DANSE ETAPLES 12,142 04:57
220 176 DULOT PASCALINE 00:49:27 V1F 12 00:15:29 00:05:47 SPORT PLUS 12,133 04:57
221 177 FLOURET LAUGIER STEPHANIE 00:49:27 V1F 13 00:15:29 00:05:47 SPORT PLUS 12,133 04:57
222 183 HAGNERE SEBASTIEN 00:49:28 SEM 72 00:15:30 00:15:30 SPORT PLUS 12,129 04:57
223 63 BUQUET STEPHANE 00:49:31 V1M 66 00:15:33 00:14:49 CALOTTERIE 12,117 04:57
224 332 DELVALLEE LOGAN 00:49:34 JUM 6 00:15:36 00:11:00 NON LICENCIE 12,105 04:57
225 35 CHARTAUX SUZEL 00:49:36 V1F 14 00:15:38 00:05:56 CS NESLES 12,097 04:58
226 27 DUCROQUET MICHEL 00:49:36 V3M 7 00:15:38 00:11:52 COLEMBERT 12,097 04:58
227 310 LASSALLE MELANIE 00:49:40 SEF 14 00:15:42 00:10:56 NON LICENCIE 12,081 04:58
228 8 BRIMEUX PIERRE 00:49:41 V3M 8 00:15:43 00:11:57 AMICALE HOSPITALIERS BOULOGNE 12,076 04:58
229 34 ROBART FRANCOIS 00:49:45 V2M 32 00:15:47 00:13:04 CS NESLES 12,060 04:59
230 326 DOSSCHE PATRICK 00:49:57 V2M 33 00:15:59 00:13:16 NON LICENCIE 12,012 05:00
231 392 GUYOT BASTIEN 00:49:57 SEM 73 00:15:59 00:15:59 NON LICENCIE 12,012 05:00
232 385 POURTAU NICOLAS 00:49:59 SEM 74 00:16:01 00:16:01 NON LICENCIE 12,004 05:00
233 337 PAQUEZ GUILLAUME 00:50:01 SEM 75 00:16:03 00:16:03 NON LICENCIE 11,996 05:00
234 371 GRENON ERIC 00:50:02 V1M 67 00:16:04 00:15:20 NON LICENCIE 11,992 05:00
235 30 RAVEL MARC 00:50:09 V2M 34 00:16:11 00:13:28 COLEMBERT 11,964 05:01
236 281 BLANPAIN NICOLAS 00:50:18 SEM 76 00:16:20 00:16:20 LE DRAPEAU 11,928 05:02
237 55 BLONDEEL STEPHANIE 00:50:24 SEF 15 00:16:26 00:11:40 ETAPLES TRIATHLON 11,905 05:02
238 202 WILLIAMSON NATHALIE 00:50:26 V2F 5 00:16:28 00:07:03 WIMEREUX RUNNING CLUB 11,897 05:03
239 161 PHIL JOEL 00:50:33 V3M 9 00:16:35 00:12:49 SAINT MARTIN ATHLETISME 11,869 05:03
240 94 DUHAMEL VINCENT 00:50:37 V1M 68 00:16:39 00:15:55 C.S. NESLES 11,854 05:04
241 16 LABBE TONY 00:50:43 V1M 69 00:16:45 00:16:01 AMICALE HOSPITALIERS BOULOGNE 11,830 05:04
242 271 HANON LILIANE 00:50:45 V2F 6 00:16:47 00:07:22 LE DRAPEAU 11,823 05:05
243 74 KACZMAREK JOSE 00:50:49 V2M 35 00:16:51 00:14:08 NON LICENCIE 11,807 05:05
244 25 CAULIER RUDOPLH 00:50:51 V1M 70 00:16:53 00:16:09 COLEMBERT 11,799 05:05
245 257 LEBON MAGALI 00:50:57 SEF 16 00:16:59 00:12:13 ATHLETISME CLUB OUTREAU 11,776 05:06
246 182 BAILLET ANTOINE 00:51:02 ESM 7 00:17:04 00:16:22 SPORT PLUS 11,757 05:06
247 23 AVISSE SEBASTIEN 00:51:10 SEM 77 00:17:12 00:17:12 COLEMBERT 11,726 05:07
248 306 RIGOULET DOROTHEE 00:51:15 SEF 17 00:17:17 00:12:31 NON LICENCIE 11,707 05:07
249 153 GOSSELIN JEAN-FRANCOIS 00:51:18 V1M 71 00:17:20 00:16:36 SAINT MARTIN ATHLETISME 11,696 05:08
250 131 RICCI GILBERT 00:51:19 V3M 10 00:17:21 00:13:35 11,692 05:08
251 303 BREQUEVILLE JONATHAN 00:51:31 SEM 78 00:17:33 00:17:33 NON LICENCIE 11,647 05:09
252 223 LEBON AUDREY 00:51:35 SEF 18 00:17:37 00:12:51 ATHLETIQUE CLUB CAPELLOIS 11,632 05:10
253 276 CARDON FRANCK 00:51:42 V1M 72 00:17:44 00:17:00 LE DRAPEAU 11,605 05:10
254 307 DU SOULIER CARINE 00:51:49 V1F 15 00:17:51 00:08:09 NON LICENCIE 11,579 05:11
255 320 LEBLANC LYDIE 00:51:53 V2F 7 00:17:55 00:08:30 A.S. MARCK 11,564 05:11
256 115 LEGOFF SAMUEL 00:51:55 SEM 79 00:17:57 00:17:57 NON LICENCIE 11,557 05:12
257 379 LEBAS BENOIT 00:52:09 V1M 73 00:18:11 00:17:27 NON LICENCIE 11,505 05:13
258 134 RAMBURE KEVIN 00:52:15 SEM 80 00:18:17 00:18:17 NON LICENCIE 11,483 05:14
259 121 FAIT FRANK 00:52:16 V1M 74 00:18:18 00:17:34 NON LICENCIE 11,480 05:14
260 49 GUILBERT FREDERIC 00:52:18 V1M 75 00:18:20 00:17:36 ELAN FRUGEOIS 11,472 05:14
261 137 WALKOWIAK MICHAEL 00:52:21 SEM 81 00:18:23 00:18:23 NON LICENCIE 11,461 05:14
262 132 FAUQUEMBERGUE VERONIQUE 00:52:24 V1F 16 00:18:26 00:08:44 11,450 05:14
263 62 COUSIN ALEXANDRE 00:52:26 SEM 82 00:18:28 00:18:28 CALOTTERIE 11,443 05:15
264 164 BOULET-NEGRI PASCALE 00:52:30 V1F 17 00:18:32 00:08:50 SAINT MARTIN ATHLETISME 11,429 05:15
265 154 MALFOY JEAN-PIERRE 00:52:33 V3M 11 00:18:35 00:14:49 SAINT MARTIN ATHLETISME 11,418 05:15
266 293 BAILLY ISABELLE 00:52:38 V1F 18 00:18:40 00:08:58 LE DRAPEAU 11,400 05:16
267 99 LEGRAND OLIVIER 00:52:40 V1M 76 00:18:42 00:17:58 NON LICENCIE 11,392 05:16
268 235 WIERRE SEVERINE 00:52:43 SEF 19 00:18:45 00:13:59 ATHLETIQUE CLUB CAPELLOIS 11,382 05:16
269 234 WIERRE LAURENT 00:52:54 SEM 83 00:18:56 00:18:56 ATHLETIQUE CLUB CAPELLOIS 11,342 05:17
270 29 MARIQUE PERRINE 00:52:58 JUF 1 00:19:00 00:00:00 COLEMBERT 11,328 05:18
271 360 CALON ANAELLE 00:53:08 CAF 2 00:19:10 00:05:32 BAC 11,292 05:19
272 189 NUYTENS CAROLINE 00:53:11 SEF 20 00:19:13 00:14:27 TOUQUET OPALE ATHLETISME 11,282 05:19
273 95 LOISEL VINCENT 00:53:12 V1M 77 00:19:14 00:18:30 11,278 05:19
274 11 FORESTIER DELPHINE 00:53:16 V1F 19 00:19:18 00:09:36 AMICALE HOSPITALIERS BOULOGNE 11,264 05:20
275 24 BIASSE MARIE-ODILE 00:53:16 V1F 20 00:19:18 00:09:36 COLEMBERT 11,264 05:20
276 313 PLARD EMMANUEL 00:53:19 V1M 78 00:19:21 00:18:37 LE DRAPEAU 11,254 05:20
277 64 MAGNIER BEATRICE 00:53:35 V2F 8 00:19:37 00:10:12 PINK LADIES 11,198 05:21
278 108 BECUE CLEMENT 00:53:37 SEM 84 00:19:39 00:19:39 NON LICENCIE 11,191 05:22
279 391 BOMY MURIEL 00:53:38 V1F 21 00:19:40 00:09:58 NON LICENCIE 11,187 05:22
280 5 DESWARTE LUDOVIC 00:53:40 V1M 79 00:19:42 00:18:58 11,180 05:22
281 216 BLANPAIN VALERIE 00:53:42 V2F 9 00:19:44 00:10:19 ATHLETIQUE CLUB CAPELLOIS 11,173 05:22
282 336 LASSON NATHALIE 00:53:43 V2F 10 00:19:45 00:10:20 NON LICENCIE 11,170 05:22
283 207 RYCKEWAERT XAVIER 00:53:50 SEM 85 00:19:52 00:19:52 WIMEREUX RUNNING CLUB 11,146 05:23
284 206 HOAREAU FREDERIQUE 00:53:50 V1F 22 00:19:52 00:10:10 WIMEREUX RUNNING CLUB 11,146 05:23
285 19 GOUDAL NATHALIE 00:53:52 V2F 11 00:19:54 00:10:29 A.S. MARCK 11,139 05:23
286 88 LEFEBVRE DENISE 00:53:55 V3F 1 00:19:57 00:00:00 NON LICENCIE 11,128 05:24
287 373 SEVESTRE ANTOINE 00:54:06 JUM 7 00:20:08 00:15:32 NON LICENCIE 11,091 05:25
288 210 VASSEUR MAITE 00:54:08 V3F 2 00:20:10 00:00:13 WIMEREUX RUNNING CLUB 11,084 05:25
289 60 DELBE PASCALE 00:54:09 V2F 12 00:20:11 00:10:46 CALOTTERIE 11,080 05:25
290 297 GRESSIER DELPHINE 00:54:19 V1F 23 00:20:21 00:10:39 TEAM TRAIL 62 11,046 05:26
291 351 CAPPE JEAN-PIERRE 00:54:20 V3M 12 00:20:22 00:16:36 CALOTTERIE 11,043 05:26
292 44 BUCHET LAURENCE 00:54:35 SEF 21 00:20:37 00:15:51 NON LICENCIE 10,992 05:28
293 42 MAGNIER REGIS 00:54:35 V1M 80 00:20:37 00:19:53 CULTURE DANSE ETAPLES 10,992 05:28
294 159 HARLE MICHEL 00:54:38 V2M 36 00:20:40 00:17:57 SAINT MARTIN ATHLETISME 10,982 05:28
295 328 REGNIER ANNE 00:54:44 V1F 24 00:20:46 00:11:04 ELAN FRUGEOIS 10,962 05:28
296 304 HERICOURT DANY 00:55:03 V1M 81 00:21:05 00:20:21 NON LICENCIE 10,899 05:30
297 390 HALLENNE KEVIN 00:55:13 ESM 8 00:21:15 00:20:33 NON LICENCIE 10,866 05:31
298 166 KORBER ANNIE 00:55:14 V2F 13 00:21:16 00:11:51 SAINT MARTIN ATHLETISME 10,863 05:31
299 261 LIMASCON FLORENCE 00:55:16 V1F 25 00:21:18 00:11:36 ATHLETISME CLUB OUTREAU 10,856 05:32
300 83 WADOUX JULIE 00:55:18 SEF 22 00:21:20 00:16:34 NON LICENCIE 10,850 05:32
301 158 DACQUIN GERARD 00:55:18 V2M 37 00:21:20 00:18:37 SAINT MARTIN ATHLETISME 10,850 05:32
302 305 VASSEUR AMANDINE 00:55:21 SEF 23 00:21:23 00:16:37 NON LICENCIE 10,840 05:32
303 383 SAVOYE VINCENT 00:55:25 SEM 86 00:21:27 00:21:27 NON LICENCIE 10,827 05:32
304 382 DELSOUSSE HERVE 00:55:25 V1M 82 00:21:27 00:20:43 NON LICENCIE 10,827 05:32
305 262 MAILLOT MELANIE 00:55:27 ESF 2 00:21:29 00:07:40 ATHLETISME CLUB OUTREAU 10,821 05:33
306 263 MAILLOT JEAN-LOUIS 00:55:29 V2M 38 00:21:31 00:18:48 ATHLETISME CLUB OUTREAU 10,814 05:33
307 329 LAVIALLE CEDRIC 00:55:32 V1M 83 00:21:34 00:20:50 NON LICENCIE 10,804 05:33
308 78 MINY CAROLINE 00:55:40 SEF 24 00:21:42 00:16:56 NON LICENCIE 10,778 05:34
309 187 HALLENNE KARINE 00:55:41 V1F 26 00:21:43 00:12:01 TOUQUET OPALE ATHLETISME 10,775 05:34
310 91 MAGRIT SANDRA 00:55:42 V1F 27 00:21:44 00:12:02 NON LICENCIE 10,772 05:34
311 169 CARON LYUBA 00:55:44 V3F 3 00:21:46 00:01:49 SAINT MARTIN ATHLETISME 10,766 05:34
312 321 SORET PATRICK 00:55:46 V2M 39 00:21:48 00:19:05 COLEMBERT 10,759 05:35
313 301 LAVIE BETTY 00:55:52 SEF 25 00:21:54 00:17:08 TOUQUET TRAIL NATURE 10,740 05:35
314 184 MARTEL ERIC 00:55:53 V2M 40 00:21:55 00:19:12 TEAM TRAIL 62 10,737 05:35
315 315 GOBERT GILLES 00:55:59 V2M 41 00:22:01 00:19:18 NON LICENCIE 10,717 05:36
316 175 DULOT ERIC 00:56:11 V2M 42 00:22:13 00:19:30 SPORT PLUS 10,679 05:37
317 179 BROCHART LUDOVIC 00:56:11 V1M 84 00:22:13 00:21:29 SPORT PLUS 10,679 05:37
318 180 DENIS CORINNE 00:56:11 V1F 28 00:22:13 00:12:31 SPORT PLUS 10,679 05:37
319 48 GUILBERT CELIA 00:56:25 CAF 3 00:22:27 00:08:49 ELAN FRUGEOIS 10,635 05:39
320 377 LEBAS ELISABETH 00:56:42 SEF 26 00:22:44 00:17:58 TOUQUET OPALE ATHLETISME 10,582 05:40
321 354 NOURRY BEATRICE 00:56:46 V1F 29 00:22:48 00:13:06 NON LICENCIE 10,570 05:41
322 211 ANDRICQ STEPHANE 00:57:02 V1M 85 00:23:04 00:22:20 ATHLETIQUE CLUB CAPELLOIS 10,520 05:42
323 167 LECLERCQ ANNE-MARIE 00:57:16 V3F 4 00:23:18 00:03:21 SAINT MARTIN ATHLETISME 10,477 05:44
324 298 HAMY PHILIPPE 00:57:17 V2M 43 00:23:19 00:20:36 RC MONT DE COUPLE 10,474 05:44
325 269 VANACKERE FREDERIC 00:57:21 V2M 44 00:23:23 00:20:40 ATHLETISME CLUB OUTREAU 10,462 05:44
326 15 PAPIN DOMINIQUE 00:57:24 V2F 14 00:23:26 00:14:01 AMICALE HOSPITALIERS BOULOGNE 10,453 05:44
327 268 SEGUIN AURORE 00:57:39 SEF 27 00:23:41 00:18:55 ATHLETISME CLUB OUTREAU 10,408 05:46
328 54 DENUDT COLETTE 00:57:52 V2F 15 00:23:54 00:14:29 ELAN FRUGEOIS 10,369 05:47
329 127 DELATTRE MAXIME 00:57:54 CAM 6 00:23:56 00:20:15 NON LICENCIE 10,363 05:47
330 265 MORICE STEPHANIE 00:57:57 V1F 30 00:23:59 00:14:17 ATHLETISME CLUB OUTREAU 10,354 05:48
331 347 CAFFIER MANUEL 00:57:57 V1M 86 00:23:59 00:23:15 NON LICENCIE 10,354 05:48
332 53 COQUART BEATRICE 00:57:59 V3F 5 00:24:01 00:04:04 ELAN FRUGEOIS 10,348 05:48
333 349 TREDEZ THEO 00:58:00 CAM 7 00:24:02 00:20:21 NON LICENCIE 10,345 05:48
334 65 MAILLARD NADINE 00:58:13 V3F 6 00:24:15 00:04:18 PINK LADIES 10,306 05:49
335 52 COQUART JULES 00:58:21 V3M 13 00:24:23 00:20:37 ELAN FRUGEOIS 10,283 05:50
336 72 CARLU PAULINE 00:58:26 SEF 28 00:24:28 00:19:42 NON LICENCIE 10,268 05:51
337 273 MODOLO FANNY 00:58:40 V1F 31 00:24:42 00:15:00 LE DRAPEAU 10,227 05:52
338 126 DELATTRE NICOLAS 00:58:47 V1M 87 00:24:49 00:24:05 NON LICENCIE 10,207 05:53
339 107 BECUE HERVE 00:58:51 V2M 45 00:24:53 00:22:10 10,195 05:53
340 363 LEBON LIONEL 00:58:59 V1M 88 00:25:01 00:24:17 NON LICENCIE 10,172 05:54
341 14 FRISQUET AURELIE 00:59:06 SEF 29 00:25:08 00:20:22 AMICALE HOSPITALIERS BOULOGNE 10,152 05:55
342 13 LACROIX OLIVIER 00:59:06 SEM 87 00:25:08 00:25:08 AMICALE HOSPITALIERS BOULOGNE 10,152 05:55
343 41 FOUCAULT CATHERINE 00:59:15 V2F 16 00:25:17 00:15:52 CULTURE DANSE ETAPLES 10,127 05:55
344 103 VEREECKE CLEMENT 00:59:23 V3M 14 00:25:25 00:21:39 NON LICENCIE 10,104 05:56
345 358 BERKOUN LAETITIA 00:59:23 SEF 30 00:25:25 00:20:39 BOULOGNE ATHLETIQUE CLUB 10,104 05:56
346 398 HEMBERT CAMILLE 00:59:31 SEM 88 00:25:33 00:25:33 NON LICENCIE 10,081 05:57
347 111 SCHUMACHER SANDRA 00:59:48 V1F 32 00:25:50 00:16:08 NON LICENCIE 10,033 05:59
348 395 SALMON CHRISTOPHE 01:00:00 V1M 89 00:26:02 00:25:18 NON LICENCIE 10,000 06:00
349 133 ZIMMY YANNICK 01:00:13 V1M 90 00:26:15 00:25:31 NON LICENCIE 9,964 06:01
350 394 DESOMBRE-HERBAUX CHARLOTTE 01:00:14 SEF 31 00:26:16 00:21:30 NON LICENCIE 9,961 06:01
351 208 LEJEUNE CHARLOTTE 01:01:24 SEF 32 00:27:26 00:22:40 WIMEREUX RUNNING CLUB 9,772 06:08
352 204 LOTIN NICOLAS 01:01:25 SEM 89 00:27:27 00:27:27 WIMEREUX RUNNING CLUB 9,769 06:08
353 242 CARON CAROLINE 01:01:54 SEF 33 00:27:56 00:23:10 ATHLETISME CLUB OUTREAU 9,693 06:11
354 240 BRILLARD CHRISTELLE 01:01:55 SEF 34 00:27:57 00:23:11 ATHLETISME CLUB OUTREAU 9,690 06:12
355 101 OGES CELINE 01:02:09 SEF 35 00:28:11 00:23:25 NON LICENCIE 9,654 06:13
356 116 LECOINTE STEPHANIE 01:02:26 V1F 33 00:28:28 00:18:46 NON LICENCIE 9,610 06:15
357 102 LINLEY CAROLINE 01:02:32 SEF 36 00:28:34 00:23:48 NON LICENCIE 9,595 06:15
358 39 MAQUINGHEN VALERIE 01:02:47 V1F 34 00:28:49 00:19:07 CSLG BOULOGNE 9,557 06:17
359 400 BELRHITI YOUNES 01:02:49 SEM 90 00:28:51 00:28:51 NON LICENCIE 9,552 06:17
360 38 MAQUINGHEN FRANCOIS 01:02:51 V1M 91 00:28:53 00:28:09 CSLG BOULOGNE 9,547 06:17
361 80 MONFLIER AURELIE 01:03:52 SEF 37 00:29:54 00:25:08 NON LICENCIE 9,395 06:23
362 114 LABRIFFE JENIFER 01:03:59 SEF 38 00:30:01 00:25:15 NON LICENCIE 9,377 06:24
363 359 HENQUEZ BERNADETTE 01:04:08 V3F 7 00:30:10 00:10:13 PATRIOTES DE GUINES 9,356 06:25
364 168 PIHL MARIE-BERTHE 01:05:04 V2F 17 00:31:06 00:21:41 SAINT MARTIN ATHLETISME 9,221 06:30
365 165 BOCQUET REJANE 01:05:52 V3F 8 00:31:54 00:11:57 SAINT MARTIN ATHLETISME 9,109 06:35
366 157 EDOUARD PIERRE 01:07:30 V4M 1 00:33:32 00:00:00 SAINT MARTIN ATHLETISME 8,889 06:45
367 162 WACOGNE Guy 01:07:30 V3M 15 00:33:32 00:29:46 SAINT MARTIN ATHLETISME 8,889 06:45
368 201 DURIEZ CLEMENTINE 01:07:47 JUF 2 00:33:49 00:14:49 WIMEREUX RUNNING CLUB 8,852 06:47
369 66 LIGNIER MARIE FRANCE 01:08:10 V4F 1 00:34:12 00:00:00 PINK LADIES 8,802 06:49
370 71 FOURNIER CHRISTOPHE 01:09:59 SEM 91 00:36:01 00:36:01 NON LICENCIE 8,573 07:00
371 217 BREQUEVILLE GERALDINE 01:10:39 V1F 35 00:36:41 00:26:59 ATHLETIQUE CLUB CAPELLOIS 8,493 07:04
372 228 NOEL LUDIVINE 01:11:30 V1F 36 00:37:32 00:27:50 ATHLETIQUE CLUB CAPELLOIS 8,392 07:09
373 69 TREDEZ FABIEN 01:13:27 V2M 46 00:39:29 00:36:46 NON LICENCIE 8,169 07:21
374 215 BETENCOURT CATHERINE 01:14:31 V1F 37 00:40:33 00:30:51 ATHLETIQUE CLUB CAPELLOIS 8,052 07:27
Novembre 2017
Lun Mar Mer Jeu Ven Sam Dim
1
2
3
4
5
6
7
8
9
10
11
12
13
14
15
16
17
18
19
20
21
22
23
24
25
27
28
29
30